Terminal Aerodrome Forecast
Issued by NWS Cleveland, OH

Home | Current Version | Previous Version | Graphics & Text | Print | Product List | Glossary On
Versions: 1 2 3 4 5 6 7 8 9 10 11 12 13 14 15 16
000
FTUS41 KCLE 161500 AAA
TAFCAK
TAF AMD
KCAK 161525Z 1615/1712 17014KT P6SM VCSH BKN035 OVC100
      TEMPO 1615/1618 3SM -SHRA OVC025
     FM161800 17012KT P6SM VCSH BKN015 OVC025
      TEMPO 1618/1622 5SM -SHRA OVC015
     FM170300 18010KT P6SM BKN008 OVC014
     FM170800 21008KT P6SM OVC010=

USA.gov is the U.S. government's official web portal to all federal, state and local government web resources and services.